Main page
METAR-TAF:

METAR-TAF

Airports :

N'Djamena International Airport

N'Djamena, Chad

latitude: 12-08N, longitude: 015-02E, elevation: 295 m

Current weather observation

The report was made 20 minutes ago, at 04:00 UTC
Wind 2 kt from the North/Northeast
Temperature 20°C
Humidity 68%
Pressure 1010 hPa
Visibility 10 km or more
no clouds below 1500 m and no cumulonimbus

METAR: FTTJ 170400Z 03002KT CAVOK 20/14 Q1010 NOSIG

Time: 05:20 (04:20 UTC)

Forecast

The report was made 5 hours and 20 minutes ago, at 23:00 UTC
Forecast valid from 17 at 00 UTC to 18 at 06 UTC
Wind 4 kt from variable directions
Visibility: 8000 m
Probability 30% :
Temporary
from 17 at 20 UTC to 17 at 23 UTC
Wind 15 kt from variable directions with gusts up to 25 kt
Visibility: 4000 m
Few clouds at a height of 4000 ft, Cumulonimbus.
Blowing dust, thunderstorm

TAF: FTTJ 162300Z 1700/1806 VRB04KT 8000 NSC PROB30 TEMPO 1720/1723 VRB15G25KT 4000 BLDU TS FEW040CB

Weather observations and forecasts of more than 4000 airports (METAR and TAF reports).

The available stations are represented by yellow and red dots on the map.

Hover mouse over dot to see the name of the station.

Then click to see weather observations and forecasts.

To change the map : click on the green buttons with a black cross to zoom in, on the green button with a dash to zoom out, or on the green arrows for adjacent maps.


METAR-TAF: